DAAGDAAV

Guest
Details From DAAG - Alger Houari Boumediene
To DAAV - JIJEL
Flight Number -
Tags generated
Created
Modified
Stats Distance 128 nm / 238 km
Max Altitude 8,800 ft / 2,682 m
Waypoints 3
Social Downloads 0
Likes 0
Share VATSIM

Download

Looking for another format? Having issues loading an existing format? Contact us
Advertisement - Login to hide

Notes

Basic altitude profile: - Ascent Rate: 12000ft/min - Ascent Speed: 260kts - Cruise Altitude: 12000ft - Cruise Speed: 310kts - Descent Rate: 1500ft/min - Descent Speed: 250kts Options: - Use NATs: yes - Use PACOTS: yes - Use low airways: yes - Use high airways: yes

Route

DAAG BJA DAAV

ID Type Via Altitude Latitude Longitude Leg Dist Tot Dist Heading (true) Name
O DAAG APT - 0 ft / 0 m 36.69752˚ 3.21308˚ - 0 nm - Alger Houari Boumediene
BJA NDB - 8,800 ft / 2,682 m 36.70667˚ 5.02472˚ 87 nm 87 nm 89° / 90° BEJAIA NDB
O DAAV APT - 0 ft / 0 m 36.79513˚ 5.87361˚ 41 nm 128 nm 82° / 83° JIJEL

Altitude Profile

Advertisement - Login to hide

DAAG

Details ICAO DAAG (ALG)
Name Alger Houari Boumediene
Region Algeria
Timezone Africa/Algiers (UTC+1.0)
Stats Elevation 82 ft / 25 m (AMSL)
Location 36.697521° 3.213079°
Runways 2
Magnetic Variation 1.058° E

METAR

DAAG 171230Z 23005KT 190V260 9999 SCT020 FEW030CB BKN046 10/08 Q1027

Decode

TAF

TAF TAF DAAG 171100Z 1712/1812 02012KT 9999 FEW020TCU BKN040 TEMPO 1712/1718 FEW026CB PROB30 TEMPO 1712/1716 5000 -RA FEW026CB BECMG 1717/1720 VRB02KT FEW023 BECMG 1809/1812 24010KT

Decode

Departure Runways

ID Width Length Bearing (true) Bearing (mag) Surface Threshold Offset Overrun Length
05 197 ft / 60 m 11,459 ft / 3,493 m 52.87° 51.81° Asphalt 0 ft / 0 m 0 ft / 0 m
09 148 ft / 45 m 11,442 ft / 3,487 m 91.75° 90.69° Asphalt 0 ft / 0 m 1,017 ft / 310 m
23 197 ft / 60 m 11,459 ft / 3,493 m 232.89° 231.83° Asphalt 0 ft / 0 m 0 ft / 0 m
27 148 ft / 45 m 11,442 ft / 3,487 m 271.78° 270.72° Asphalt 0 ft / 0 m 0 ft / 0 m

DAAV

Details ICAO DAAV (GJL)
Name JIJEL
Region Algeria
Timezone Africa/Algiers (UTC+1.0)
Stats Elevation 36 ft / 11 m (AMSL)
Location 36.795135° 5.873607°
Runways 1
Magnetic Variation 1.608° E

METAR

DAAV 171200Z 20006KT 8000 SCT016 FEW026CB BKN030 10/08 Q1025

Decode

TAF

TAF DAAV 171100Z 1712/1812 34014KT 7000 SCT020 FEW026CB BKN033 TEMPO 1712/1721 32015G30KT 3000 -TSRA FEW010 TEMPO 1800/1812 32015G25KT 5000 -RA

Decode

Destination Runways

ID Width Length Bearing (true) Bearing (mag) Surface Threshold Offset Overrun Length
17 148 ft / 45 m 7,904 ft / 2,409 m 171.05° 169.44° Asphalt 0 ft / 0 m 0 ft / 0 m
35 148 ft / 45 m 7,904 ft / 2,409 m 351.05° 349.44° Asphalt 0 ft / 0 m 0 ft / 0 m

Popular Alternatives